Time;durP1;ratioP1;P1;durP2;ratioP2;P2;SDS_P1;SDS_P2;PMS_P1;PMS_P2;Temp;Humidity;BMP_temperature;BMP_pressure;BME280_temperature;BME280_humidity;BME280_pressure;Samples;Min_cycle;Max_cycle;Signal;HPM_P1;HPM_P2
2022/09/04 00:00:13;;;;;;;12.33;8.43;;;17.20;99.90;;;;;;4988004;28;20442;-78
2022/09/04 00:03:06;;;;;;;9.43;8.53;;;17.20;99.90;;;;;;4993703;28;20502;-76
2022/09/04 00:05:49;;;;;;;11.23;8.80;;;17.10;99.90;;;;;;4993605;28;20453;-76
2022/09/04 00:08:24;;;;;;;12.73;8.30;;;17.00;99.90;;;;;;4993244;28;20429;-78
2022/09/04 00:11:11;;;;;;;8.63;7.73;;;16.90;99.90;;;;;;4993131;28;20437;-76
2022/09/04 00:13:42;;;;;;;15.13;8.83;;;16.90;99.90;;;;;;4993571;28;20404;-75
2022/09/04 00:16:15;;;;;;;10.30;8.73;;;16.80;99.90;;;;;;4992446;28;20419;-76
2022/09/04 00:18:54;;;;;;;8.70;7.90;;;16.80;99.90;;;;;;4997360;28;20430;-75
2022/09/04 00:21:33;;;;;;;9.63;8.67;;;16.80;99.90;;;;;;4995706;28;20532;-80
2022/09/04 00:24:03;;;;;;;8.40;7.47;;;16.70;99.90;;;;;;4997231;28;20419;-79
2022/09/04 00:26:48;;;;;;;10.37;7.83;;;16.80;99.90;;;;;;4997178;28;20420;-77
2022/09/04 00:29:25;;;;;;;9.70;8.03;;;16.80;99.90;;;;;;4997135;28;20780;-77
2022/09/04 00:32:06;;;;;;;9.00;8.10;;;16.70;99.90;;;;;;4995403;28;20986;-77
2022/09/04 00:34:54;;;;;;;14.57;7.43;;;16.70;99.90;;;;;;4996844;28;20454;-78
2022/09/04 00:37:24;;;;;;;8.80;7.90;;;16.70;99.90;;;;;;4996971;28;20407;-76
2022/09/04 00:39:52;;;;;;;9.07;8.17;;;16.70;99.90;;;;;;4996553;28;20415;-78
2022/09/04 00:42:33;;;;;;;8.93;7.67;;;16.70;99.90;;;;;;4997044;28;20430;-76
2022/09/04 00:45:40;;;;;;;9.20;8.27;;;16.70;99.90;;;;;;4997081;28;20525;-78
2022/09/04 00:48:17;;;;;;;8.67;7.70;;;16.70;99.90;;;;;;4986393;28;20478;-78
2022/09/04 00:50:58;;;;;;;8.87;6.57;;;16.70;99.90;;;;;;4996405;28;20438;-78
2022/09/04 00:53:43;;;;;;;7.83;7.13;;;16.70;99.90;;;;;;4995481;28;20432;-75
2022/09/04 00:56:14;;;;;;;8.90;7.17;;;16.70;99.90;;;;;;4995432;28;20435;-76
2022/09/04 00:58:59;;;;;;;8.47;7.00;;;16.60;99.90;;;;;;4996541;28;20382;-78
2022/09/04 01:01:26;;;;;;;8.00;7.30;;;16.60;99.90;;;;;;4994931;28;20438;-78
2022/09/04 01:04:15;;;;;;;8.47;7.10;;;16.60;99.90;;;;;;4996442;28;20766;-73
2022/09/04 01:06:51;;;;;;;11.03;8.27;;;16.60;99.90;;;;;;4996321;28;20424;-77
2022/09/04 01:09:35;;;;;;;9.00;6.50;;;16.60;99.90;;;;;;4996662;28;20411;-77
2022/09/04 01:12:01;;;;;;;7.80;6.60;;;16.60;99.90;;;;;;4994790;28;20493;-76
2022/09/04 01:15:00;;;;;;;7.90;7.20;;;16.50;99.90;;;;;;4996335;28;20858;-74
2022/09/04 01:17:39;;;;;;;7.30;6.17;;;16.50;99.90;;;;;;4991544;28;20203;-77
2022/09/04 01:20:44;;;;;;;7.33;6.73;;;16.60;99.90;;;;;;4995893;28;20915;-76
2022/09/04 01:23:34;;;;;;;6.70;6.10;;;16.60;99.90;;;;;;4996109;28;20385;-75
2022/09/04 01:26:12;;;;;;;6.93;6.33;;;16.50;99.90;;;;;;4978852;28;20455;-76
2022/09/04 01:29:27;;;;;;;6.83;6.07;;;16.50;99.90;;;;;;4995239;28;20819;-78
2022/09/04 01:32:08;;;;;;;6.10;5.60;;;16.50;99.90;;;;;;4973912;28;20444;-75
2022/09/04 01:34:59;;;;;;;7.60;6.90;;;16.50;99.90;;;;;;4974453;28;20518;-75
2022/09/04 01:37:57;;;;;;;6.63;5.70;;;16.50;99.90;;;;;;4991946;28;20765;-78
2022/09/04 01:40:23;;;;;;;6.23;5.67;;;16.40;99.90;;;;;;4995527;28;20497;-77
2022/09/04 01:43:03;;;;;;;6.80;6.20;;;16.40;99.90;;;;;;4994570;28;20419;-77
2022/09/04 01:45:36;;;;;;;6.57;5.83;;;16.30;99.90;;;;;;4995902;28;20185;-75
2022/09/04 01:48:06;;;;;;;7.17;6.27;;;16.30;99.90;;;;;;4995719;28;20459;-78
2022/09/04 01:50:34;;;;;;;6.93;6.23;;;16.30;99.90;;;;;;4995316;28;20449;-75
2022/09/04 01:53:13;;;;;;;6.93;6.33;;;16.30;99.90;;;;;;4995562;28;20570;-77
2022/09/04 01:56:19;;;;;;;6.93;6.33;;;16.30;99.90;;;;;;4994271;28;20431;-77
2022/09/04 01:59:02;;;;;;;8.80;5.80;;;16.20;99.90;;;;;;4995514;28;20443;-75
2022/09/04 02:01:41;;;;;;;6.97;5.93;;;16.20;99.90;;;;;;4995119;28;20439;-76
2022/09/04 02:04:27;;;;;;;6.97;6.30;;;16.20;99.90;;;;;;4995533;28;20442;-74
2022/09/04 02:07:23;;;;;;;6.43;5.83;;;16.20;99.90;;;;;;4995472;28;20415;-77
2022/09/04 02:10:26;;;;;;;6.47;5.87;;;16.20;99.90;;;;;;4995137;28;20426;-76
2022/09/04 02:13:12;;;;;;;6.57;5.90;;;16.20;99.90;;;;;;4995321;28;20410;-77
2022/09/04 02:15:48;;;;;;;8.80;5.13;;;16.20;99.90;;;;;;4995185;28;20418;-76
2022/09/04 02:18:44;;;;;;;6.60;5.73;;;16.20;99.90;;;;;;4995261;28;20780;-76
2022/09/04 02:21:24;;;;;;;6.70;6.00;;;16.10;99.90;;;;;;4993414;28;20439;-78
2022/09/04 02:24:16;;;;;;;7.73;6.93;;;16.10;99.90;;;;;;4994055;28;20503;-75
2022/09/04 02:26:50;;;;;;;6.17;5.50;;;16.00;99.90;;;;;;4986768;28;20760;-78
2022/09/04 02:29:38;;;;;;;6.13;5.37;;;15.90;99.90;;;;;;4994732;28;20493;-78
2022/09/04 02:32:24;;;;;;;7.53;6.73;;;15.90;99.90;;;;;;4994565;28;20434;-78
2022/09/04 02:35:08;;;;;;;6.53;6.03;;;15.90;99.90;;;;;;4994708;28;20429;-76
2022/09/04 02:38:13;;;;;;;6.63;6.03;;;15.90;99.90;;;;;;4993395;28;20439;-74
2022/09/04 02:41:25;;;;;;;7.43;5.67;;;15.90;99.90;;;;;;4993507;28;20434;-77
2022/09/04 02:44:46;;;;;;;6.03;5.47;;;15.90;99.90;;;;;;4978281;28;20882;-76
2022/09/04 02:47:32;;;;;;;5.17;4.77;;;15.80;99.90;;;;;;4973290;28;20504;-77
2022/09/04 02:50:16;;;;;;;5.10;4.67;;;15.90;99.90;;;;;;4973006;28;20391;-77
2022/09/04 02:53:16;;;;;;;6.50;5.87;;;15.80;99.90;;;;;;4986966;28;20427;-77
2022/09/04 02:56:23;;;;;;;6.13;5.57;;;15.90;99.90;;;;;;4983107;28;20522;-79
2022/09/04 02:59:02;;;;;;;5.30;4.80;;;15.80;99.90;;;;;;4994633;28;20386;-78
2022/09/04 03:01:45;;;;;;;6.93;5.30;;;15.80;99.90;;;;;;4993126;28;20449;-77
2022/09/04 03:04:32;;;;;;;5.37;4.87;;;15.70;99.90;;;;;;4994574;28;20407;-78
2022/09/04 03:07:24;;;;;;;5.00;4.60;;;15.70;99.90;;;;;;4994529;28;20418;-77
2022/09/04 03:09:57;;;;;;;5.87;4.27;;;15.60;99.90;;;;;;4992970;28;20402;-78
2022/09/04 03:12:44;;;;;;;5.20;4.80;;;15.60;99.90;;;;;;4994464;28;20437;-78
2022/09/04 03:15:28;;;;;;;6.50;4.60;;;15.60;99.90;;;;;;4994294;28;20754;-77
2022/09/04 03:18:12;;;;;;;6.77;4.10;;;15.60;99.90;;;;;;4992901;28;20966;-78
2022/09/04 03:20:53;;;;;;;4.30;3.90;;;15.60;99.90;;;;;;4993989;28;20472;-78
2022/09/04 03:23:27;;;;;;;3.70;3.37;;;15.60;99.90;;;;;;4994111;28;20423;-77
2022/09/04 03:26:04;;;;;;;4.23;3.83;;;15.60;99.90;;;;;;4992690;28;20409;-75
2022/09/04 03:28:46;;;;;;;4.30;3.90;;;15.60;99.90;;;;;;4994113;28;20594;-79
2022/09/04 03:31:34;;;;;;;6.70;3.83;;;15.60;99.90;;;;;;4992309;28;20439;-78
2022/09/04 03:34:33;;;;;;;6.53;4.90;;;15.50;99.90;;;;;;4994074;28;20462;-76
2022/09/04 03:37:25;;;;;;;4.10;3.80;;;15.50;99.90;;;;;;4993801;28;20407;-78
2022/09/04 03:40:05;;;;;;;5.10;4.00;;;15.50;99.90;;;;;;4992162;28;20482;-78
2022/09/04 03:43:00;;;;;;;3.87;3.47;;;15.50;99.90;;;;;;4993926;28;20411;-75
2022/09/04 03:45:53;;;;;;;6.17;3.50;;;15.40;99.90;;;;;;4993970;28;20403;-76
2022/09/04 03:48:34;;;;;;;5.40;3.83;;;15.40;99.90;;;;;;4993867;28;20467;-76
2022/09/04 03:51:37;;;;;;;3.40;3.10;;;15.40;99.90;;;;;;4994251;28;20438;-78
2022/09/04 03:54:35;;;;;;;3.53;3.23;;;15.40;99.90;;;;;;4998966;28;20405;-79
2022/09/04 03:57:25;;;;;;;3.80;3.50;;;15.30;99.90;;;;;;4988534;28;20426;-76
2022/09/04 03:59:51;;;;;;;5.40;4.40;;;15.30;99.90;;;;;;5000238;28;20411;-76
2022/09/04 04:02:19;;;;;;;3.60;3.30;;;15.20;99.90;;;;;;4999076;28;20449;-74
2022/09/04 04:05:15;;;;;;;3.80;3.40;;;15.20;99.90;;;;;;5000222;28;20176;-75
2022/09/04 04:08:26;;;;;;;3.90;3.60;;;15.20;99.90;;;;;;5000354;28;20458;-74
2022/09/04 04:11:11;;;;;;;3.40;3.10;;;15.20;99.90;;;;;;4998749;28;20421;-77
2022/09/04 04:13:54;;;;;;;3.17;2.97;;;15.10;99.90;;;;;;4998927;28;20401;-77
2022/09/04 04:16:27;;;;;;;4.40;3.37;;;15.10;99.90;;;;;;5000123;28;20823;-77
2022/09/04 04:19:09;;;;;;;4.13;3.27;;;15.10;99.90;;;;;;4999081;28;20807;-77
2022/09/04 04:22:10;;;;;;;4.20;3.80;;;15.10;99.90;;;;;;4999771;28;20441;-78
2022/09/04 04:25:13;;;;;;;3.60;3.30;;;15.00;99.90;;;;;;5000111;28;20980;-75
2022/09/04 04:27:57;;;;;;;3.40;3.00;;;15.00;99.90;;;;;;4999987;28;20974;-75
2022/09/04 04:30:23;;;;;;;3.27;2.80;;;15.00;99.90;;;;;;4999567;28;20427;-75
2022/09/04 04:33:07;;;;;;;3.40;2.93;;;15.00;99.90;;;;;;4998867;28;20770;-77
2022/09/04 04:35:50;;;;;;;3.60;2.83;;;15.00;99.90;;;;;;4998794;28;20405;-78
2022/09/04 04:38:24;;;;;;;3.93;3.10;;;15.00;99.90;;;;;;5000468;28;20388;-77
2022/09/04 04:41:29;;;;;;;3.10;2.80;;;15.00;99.90;;;;;;4999657;28;20439;-75
2022/09/04 04:44:00;;;;;;;3.40;3.10;;;15.00;99.90;;;;;;4999891;28;20410;-75
2022/09/04 04:46:57;;;;;;;2.60;2.40;;;15.00;99.90;;;;;;4999887;28;20468;-74
2022/09/04 04:49:32;;;;;;;3.13;2.70;;;15.00;99.90;;;;;;5000031;28;20448;-75
2022/09/04 04:52:17;;;;;;;2.73;2.53;;;15.00;99.90;;;;;;4998333;28;20954;-78
2022/09/04 04:55:05;;;;;;;3.00;2.80;;;14.80;99.90;;;;;;4999683;28;20521;-77
2022/09/04 04:57:37;;;;;;;2.90;2.60;;;14.80;99.90;;;;;;4999861;28;20385;-77
2022/09/04 05:00:11;;;;;;;2.50;2.30;;;14.90;99.90;;;;;;4999582;28;20831;-76
2022/09/04 05:03:20;;;;;;;3.13;2.50;;;14.90;99.90;;;;;;4998822;28;20398;-78
2022/09/04 05:06:13;;;;;;;2.43;2.10;;;15.00;99.90;;;;;;4975300;28;20805;-76
2022/09/04 05:08:48;;;;;;;4.20;3.50;;;15.00;99.90;;;;;;4974797;28;20459;-78
2022/09/04 05:11:58;;;;;;;3.10;2.60;;;15.00;99.90;;;;;;4990610;28;20967;-77
2022/09/04 05:14:44;;;;;;;3.10;2.70;;;15.00;99.90;;;;;;4985351;28;20423;-75
2022/09/04 05:17:37;;;;;;;2.67;2.47;;;15.00;99.90;;;;;;4996655;28;20410;-76
2022/09/04 05:20:28;;;;;;;3.07;2.80;;;15.00;99.90;;;;;;4990276;28;20419;-76
2022/09/04 05:23:11;;;;;;;6.00;2.60;;;15.00;99.90;;;;;;4996245;28;20928;-76
2022/09/04 05:25:58;;;;;;;3.10;2.80;;;15.00;99.90;;;;;;4996328;28;20390;-75
2022/09/04 05:28:49;;;;;;;3.70;3.40;;;15.00;99.90;;;;;;4996215;28;20425;-76
2022/09/04 05:31:45;;;;;;;4.00;3.57;;;14.90;99.90;;;;;;4995832;28;20925;-74
2022/09/04 05:34:23;;;;;;;3.17;2.97;;;15.00;99.90;;;;;;4996243;28;20465;-77
2022/09/04 05:37:06;;;;;;;4.90;3.00;;;15.00;99.90;;;;;;4995882;28;20407;-77
2022/09/04 05:39:35;;;;;;;3.37;3.07;;;15.10;99.90;;;;;;4996063;28;20453;-74
2022/09/04 05:42:32;;;;;;;2.83;2.40;;;15.20;99.90;;;;;;4995652;28;20455;-73
2022/09/04 05:45:07;;;;;;;3.03;2.77;;;15.20;99.90;;;;;;4995671;28;20406;-78
2022/09/04 05:48:00;;;;;;;3.17;2.50;;;15.30;99.90;;;;;;4996099;28;20425;-74
2022/09/04 05:50:48;;;;;;;2.63;2.43;;;15.30;99.90;;;;;;4995505;28;20474;-75
2022/09/04 05:53:22;;;;;;;3.47;3.10;;;15.40;99.90;;;;;;4995731;28;20378;-77
2022/09/04 05:56:06;;;;;;;2.83;2.63;;;15.40;99.90;;;;;;4995689;28;20419;-78
2022/09/04 05:58:53;;;;;;;2.83;2.47;;;15.50;99.90;;;;;;4995782;28;20413;-74
2022/09/04 06:01:48;;;;;;;3.33;2.77;;;15.50;99.90;;;;;;4995237;28;20402;-76
2022/09/04 06:04:22;;;;;;;3.87;2.83;;;15.50;99.90;;;;;;4992579;28;20936;-76
2022/09/04 06:07:00;;;;;;;3.43;2.87;;;15.60;99.90;;;;;;4995580;28;20380;-78
2022/09/04 06:09:45;;;;;;;3.03;2.43;;;15.80;99.90;;;;;;4995832;28;20423;-76
2022/09/04 06:12:47;;;;;;;3.20;2.97;;;15.80;99.90;;;;;;4995650;28;20926;-75
2022/09/04 06:15:35;;;;;;;3.60;3.17;;;15.90;99.90;;;;;;4995076;28;20422;-77
2022/09/04 06:18:22;;;;;;;3.20;2.90;;;15.90;99.90;;;;;;4995486;28;20898;-77
2022/09/04 06:21:20;;;;;;;6.10;3.90;;;16.00;99.90;;;;;;4995012;28;20430;-77
2022/09/04 06:24:15;;;;;;;3.40;3.10;;;16.10;99.90;;;;;;4995312;28;20411;-75
2022/09/04 06:26:53;;;;;;;3.83;3.40;;;16.30;99.90;;;;;;4995134;28;20442;-76
2022/09/04 06:29:27;;;;;;;4.20;3.00;;;16.40;99.90;;;;;;4995064;28;20820;-76
2022/09/04 06:32:17;;;;;;;4.10;3.30;;;16.40;99.90;;;;;;4994574;28;20497;-75
2022/09/04 06:34:57;;;;;;;5.13;3.20;;;16.50;99.90;;;;;;4995054;28;20411;-75
2022/09/04 06:37:48;;;;;;;6.27;3.40;;;16.50;99.90;;;;;;4994776;28;20415;-75
2022/09/04 06:40:30;;;;;;;7.80;3.60;;;16.60;99.90;;;;;;4994622;28;20390;-75
2022/09/04 06:43:31;;;;;;;7.97;3.50;;;16.70;99.90;;;;;;4993588;28;20394;-76
2022/09/04 06:46:08;;;;;;;4.90;3.60;;;16.90;99.90;;;;;;4994723;28;20443;-76
2022/09/04 06:48:52;;;;;;;4.03;3.60;;;17.00;99.90;;;;;;4994736;28;20822;-76
2022/09/04 06:52:02;;;;;;;3.73;3.43;;;17.10;99.90;;;;;;4994214;28;20446;-76
2022/09/04 06:54:27;;;;;;;4.70;3.13;;;17.20;99.90;;;;;;4993388;28;20413;-76
2022/09/04 06:56:54;;;;;;;3.47;2.73;;;17.30;99.90;;;;;;4994843;28;20908;-76
2022/09/04 06:59:33;;;;;;;4.90;2.97;;;17.50;99.90;;;;;;4994823;28;20203;-77
2022/09/04 07:02:04;;;;;;;4.07;2.93;;;17.40;99.90;;;;;;4994097;28;20435;-78
2022/09/04 07:05:02;;;;;;;3.13;2.80;;;17.50;99.90;;;;;;4994574;28;20418;-76
2022/09/04 07:07:51;;;;;;;2.70;2.50;;;17.60;99.90;;;;;;4994291;28;20513;-76
2022/09/04 07:10:42;;;;;;;3.10;2.80;;;17.70;99.90;;;;;;4992913;28;20394;-77
2022/09/04 07:13:23;;;;;;;4.47;3.10;;;17.90;99.90;;;;;;4993202;28;20742;-76
2022/09/04 07:16:24;;;;;;;3.33;2.60;;;17.80;99.90;;;;;;4993044;28;20454;-75
2022/09/04 07:19:18;;;;;;;3.60;3.30;;;18.00;99.90;;;;;;4994504;28;20898;-75
2022/09/04 07:21:47;;;;;;;3.07;2.63;;;18.10;99.90;;;;;;4993884;28;20955;-78
2022/09/04 07:24:25;;;;;;;3.70;3.17;;;18.20;99.90;;;;;;4994171;28;20386;-75
2022/09/04 07:27:14;;;;;;;6.30;3.17;;;18.40;99.90;;;;;;4993604;28;20426;-76
2022/09/04 07:29:53;;;;;;;2.80;2.60;;;18.60;99.90;;;;;;4993991;28;20419;-78
2022/09/04 07:32:32;;;;;;;4.00;3.10;;;18.70;99.90;;;;;;4994187;28;20450;-76
2022/09/04 07:35:09;;;;;;;7.10;2.60;;;18.80;99.90;;;;;;4994037;28;20417;-77
2022/09/04 07:37:45;;;;;;;3.43;2.57;;;18.90;99.90;;;;;;4993386;28;20414;-77
2022/09/04 07:40:24;;;;;;;3.00;2.33;;;19.10;99.90;;;;;;4993214;28;20488;-78
2022/09/04 07:42:56;;;;;;;2.40;2.20;;;19.30;99.90;;;;;;4992612;28;20923;-77
2022/09/04 07:45:36;;;;;;;3.80;2.33;;;19.50;99.90;;;;;;4993759;28;20750;-77
2022/09/04 07:48:09;;;;;;;2.40;2.20;;;19.60;99.90;;;;;;4993549;28;20450;-77
2022/09/04 07:50:45;;;;;;;2.23;2.03;;;19.80;99.90;;;;;;4993492;28;20979;-76
2022/09/04 07:53:37;;;;;;;2.87;2.60;;;20.00;99.90;;;;;;4992559;28;20939;-76
2022/09/04 07:56:11;;;;;;;3.90;2.70;;;20.10;99.90;;;;;;4993060;28;20419;-76
2022/09/04 07:59:03;;;;;;;3.33;2.00;;;20.10;99.90;;;;;;4991038;28;20842;-75
2022/09/04 08:01:50;;;;;;;3.30;2.00;;;20.20;99.90;;;;;;4992078;28;20431;-76
2022/09/04 08:04:42;;;;;;;3.60;2.50;;;20.30;99.90;;;;;;4972979;28;20795;-76
2022/09/04 08:07:19;;;;;;;2.60;2.40;;;20.40;99.90;;;;;;4972958;28;20419;-76
2022/09/04 08:09:56;;;;;;;2.77;2.57;;;20.40;99.90;;;;;;4973967;28;20923;-77
2022/09/04 08:12:41;;;;;;;4.57;2.60;;;20.60;99.90;;;;;;4974448;28;20436;-79
2022/09/04 08:15:31;;;;;;;4.30;2.70;;;20.70;99.90;;;;;;4974469;28;20403;-78
2022/09/04 08:18:23;;;;;;;4.33;2.80;;;20.90;99.90;;;;;;4974181;28;20832;-79
2022/09/04 08:21:14;;;;;;;3.10;2.43;;;21.00;99.90;;;;;;4973920;28;20442;-79
2022/09/04 08:24:09;;;;;;;3.17;2.27;;;21.00;99.90;;;;;;4974367;28;20427;-78
2022/09/04 08:27:12;;;;;;;2.53;2.30;;;21.10;99.90;;;;;;4966231;28;20780;-78
2022/09/04 08:30:01;;;;;;;5.63;2.03;;;21.50;99.90;;;;;;4972708;28;20446;-78
2022/09/04 08:32:33;;;;;;;2.03;1.83;;;21.70;99.90;;;;;;4973968;28;20408;-77
2022/09/04 08:34:59;;;;;;;2.00;1.90;;;22.10;99.90;;;;;;4973869;28;20915;-77
2022/09/04 08:37:29;;;;;;;2.00;1.80;;;22.50;99.90;;;;;;4974102;28;20420;-78
2022/09/04 08:40:10;;;;;;;2.80;1.90;;;23.20;99.90;;;;;;4976741;28;20710;-80
2022/09/04 08:42:44;;;;;;;2.60;1.67;;;23.70;99.90;;;;;;4977520;28;20888;-78
2022/09/04 08:45:39;;;;;;;2.80;1.37;;;23.90;99.90;;;;;;4977659;28;20411;-78
2022/09/04 08:48:20;;;;;;;1.67;1.57;;;24.20;99.90;;;;;;4977415;28;20513;-78
2022/09/04 08:50:54;;;;;;;2.40;1.73;;;24.30;99.90;;;;;;4977114;28;20445;-78
2022/09/04 08:53:47;;;;;;;2.10;1.50;;;24.70;99.90;;;;;;4977286;28;20501;-79
2022/09/04 08:56:17;;;;;;;1.63;1.37;;;25.00;99.90;;;;;;4975949;28;20439;-78
2022/09/04 08:59:05;;;;;;;3.17;1.70;;;25.50;99.90;;;;;;4977216;28;20904;-78
2022/09/04 09:01:52;;;;;;;1.53;1.40;;;25.90;99.90;;;;;;4975779;28;20447;-78
2022/09/04 09:04:40;;;;;;;1.63;1.47;;;25.30;99.90;;;;;;4977375;28;20933;-78
2022/09/04 09:07:27;;;;;;;1.27;1.17;;;24.90;99.90;;;;;;4976030;28;20785;-79
2022/09/04 09:09:56;;;;;;;1.50;1.33;;;25.00;99.90;;;;;;4976818;28;20514;-78
2022/09/04 09:12:36;;;;;;;1.67;1.37;;;25.80;99.90;;;;;;4977051;28;20435;-79
2022/09/04 09:15:47;;;;;;;1.87;1.30;;;26.00;99.90;;;;;;4977191;28;20415;-78
2022/09/04 09:18:38;;;;;;;3.43;1.27;;;26.70;99.90;;;;;;4976828;28;20498;-76
2022/09/04 09:21:28;;;;;;;2.07;1.30;;;26.90;99.90;;;;;;4976608;28;20435;-76
2022/09/04 09:24:05;;;;;;;0.93;0.87;;;26.90;99.90;;;;;;4976933;28;20403;-75
2022/09/04 09:26:43;;;;;;;1.60;1.20;;;26.80;99.90;;;;;;4977035;28;20410;-76
2022/09/04 09:29:41;;;;;;;1.30;1.00;;;27.20;99.90;;;;;;4976858;28;20455;-74
2022/09/04 09:32:21;;;;;;;1.40;1.10;;;26.90;99.90;;;;;;4976688;28;20432;-75
2022/09/04 09:35:32;;;;;;;1.20;1.10;;;27.30;99.90;;;;;;4976537;28;20469;-76
2022/09/04 09:38:10;;;;;;;4.50;1.00;;;27.10;99.90;;;;;;4976753;28;20415;-76
2022/09/04 09:40:38;;;;;;;2.03;1.30;;;27.70;99.90;;;;;;4976199;28;20423;-76
2022/09/04 09:43:26;;;;;;;1.20;1.10;;;27.90;99.90;;;;;;4976193;28;20411;-76
2022/09/04 09:46:01;;;;;;;1.93;1.17;;;27.60;99.90;;;;;;4975480;28;20411;-76
2022/09/04 09:49:04;;;;;;;4.33;1.60;;;28.60;99.90;;;;;;4976206;28;20891;-76
2022/09/04 09:52:07;;;;;;;5.03;1.40;;;28.40;99.90;;;;;;4975917;28;20434;-75
2022/09/04 09:54:42;;;;;;;1.40;1.30;;;28.60;99.90;;;;;;4976498;28;20427;-76
2022/09/04 09:57:19;;;;;;;1.43;1.20;;;28.90;99.90;;;;;;4976200;28;20415;-76
2022/09/04 10:00:09;;;;;;;2.50;1.30;;;28.90;99.90;;;;;;4976130;28;20407;-76
2022/09/04 10:02:47;;;;;;;1.60;1.20;;;28.30;99.90;;;;;;4976387;28;20769;-76
2022/09/04 10:05:50;;;;;;;1.20;1.10;;;29.10;99.90;;;;;;4976213;28;20434;-76
2022/09/04 10:08:55;;;;;;;1.20;1.10;;;28.90;99.90;;;;;;4975912;28;20455;-76
2022/09/04 10:11:57;;;;;;;2.30;1.40;;;29.10;99.90;;;;;;4988228;28;20526;-75
2022/09/04 10:14:32;;;;;;;1.50;1.10;;;29.30;99.90;;;;;;4995540;28;20403;-75
2022/09/04 10:17:16;;;;;;;1.17;1.07;;;28.50;99.90;;;;;;4995433;28;20910;-75
2022/09/04 10:20:20;;;;;;;1.30;1.17;;;28.30;99.90;;;;;;4995328;28;20806;-75
2022/09/04 10:23:24;;;;;;;2.00;1.33;;;27.60;99.90;;;;;;4972324;28;20453;-76
2022/09/04 10:26:11;;;;;;;4.63;1.40;;;27.10;99.90;;;;;;4953266;28;20908;-76
2022/09/04 10:29:09;;;;;;;1.90;1.60;;;26.90;99.90;;;;;;4994166;28;20454;-76
2022/09/04 10:32:12;;;;;;;3.80;1.20;;;26.90;99.90;;;;;;4993079;28;20446;-77
2022/09/04 10:35:15;;;;;;;1.53;1.20;;;27.60;99.90;;;;;;4994936;28;20764;-75
2022/09/04 10:38:14;;;;;;;2.17;1.30;;;27.90;99.90;;;;;;4994976;28;20800;-75
2022/09/04 10:41:17;;;;;;;2.67;1.60;;;29.20;99.90;;;;;;4994593;28;20868;-76
2022/09/04 10:43:49;;;;;;;4.00;1.27;;;29.40;99.90;;;;;;4993465;28;20448;-74
2022/09/04 10:46:31;;;;;;;1.60;1.50;;;29.30;99.90;;;;;;4994863;28;20419;-77
2022/09/04 10:49:35;;;;;;;2.10;1.40;;;28.80;99.90;;;;;;4993569;28;20465;-75
2022/09/04 10:52:13;;;;;;;2.50;1.37;;;28.00;99.90;;;;;;4971924;28;21143;-76
2022/09/04 10:55:02;;;;;;;3.93;1.53;;;27.20;99.90;;;;;;4975222;28;20427;-75
2022/09/04 10:57:53;;;;;;;4.90;1.40;;;27.20;99.90;;;;;;4975131;28;20477;-75
2022/09/04 11:00:20;;;;;;;1.57;1.10;;;26.70;99.90;;;;;;4974651;28;20423;-75
2022/09/04 11:03:13;;;;;;;1.57;1.20;;;27.00;99.90;;;;;;4973569;28;20419;-74
2022/09/04 11:06:13;;;;;;;1.67;1.30;;;27.10;99.90;;;;;;4992647;28;20422;-75
2022/09/04 11:08:53;;;;;;;2.33;1.40;;;27.10;99.90;;;;;;4994007;28;20830;-76
2022/09/04 11:12:06;;;;;;;1.73;1.43;;;27.10;99.90;;;;;;4993977;28;20803;-75
2022/09/04 11:15:15;;;;;;;1.63;1.40;;;26.90;99.90;;;;;;4994164;28;20442;-75
2022/09/04 11:18:03;;;;;;;2.17;1.43;;;27.10;99.90;;;;;;4991312;28;20492;-75
2022/09/04 11:20:51;;;;;;;4.63;1.87;;;27.20;99.90;;;;;;4997948;28;20505;-76
2022/09/04 11:23:35;;;;;;;2.40;1.30;;;27.00;99.90;;;;;;4992935;28;20410;-75
2022/09/04 11:26:12;;;;;;;2.50;1.60;;;27.10;99.90;;;;;;4991283;28;20437;-74
2022/09/04 11:28:50;;;;;;;2.63;1.60;;;27.40;99.90;;;;;;4992282;28;20545;-75
2022/09/04 11:31:29;;;;;;;1.50;1.40;;;28.30;99.90;;;;;;4992016;28;20496;-73
2022/09/04 11:33:57;;;;;;;1.67;1.40;;;28.90;99.90;;;;;;4990461;28;20458;-73
2022/09/04 11:36:29;;;;;;;2.67;1.40;;;29.40;99.90;;;;;;4990006;28;20434;-74
2022/09/04 11:39:16;;;;;;;4.90;1.20;;;29.50;99.90;;;;;;4987886;28;20610;-75
2022/09/04 11:41:44;;;;;;;2.90;1.40;;;29.10;99.90;;;;;;4991388;28;20454;-73
2022/09/04 11:44:35;;;;;;;3.80;1.60;;;29.30;99.90;;;;;;4992339;28;20962;-76
2022/09/04 11:47:19;;;;;;;3.73;1.53;;;28.90;99.90;;;;;;4985977;28;20946;-73
2022/09/04 11:49:51;;;;;;;2.17;1.50;;;29.00;99.90;;;;;;4992128;28;20509;-73
2022/09/04 11:52:54;;;;;;;2.50;1.43;;;29.00;99.90;;;;;;4991862;28;20445;-75
2022/09/04 11:55:50;;;;;;;1.60;1.30;;;29.10;99.90;;;;;;4990988;28;20835;-75
2022/09/04 11:58:28;;;;;;;2.13;1.23;;;29.10;99.90;;;;;;4991163;28;20496;-73
2022/09/04 12:01:15;;;;;;;2.37;1.93;;;28.70;99.90;;;;;;4990646;28;20434;-74
2022/09/04 12:04:05;;;;;;;2.30;1.50;;;28.20;99.90;;;;;;4991262;28;20529;-74
2022/09/04 12:07:11;;;;;;;2.17;1.50;;;28.70;99.90;;;;;;4992606;28;20411;-73
2022/09/04 12:10:16;;;;;;;2.00;1.60;;;29.00;99.90;;;;;;4986729;28;20788;-73
2022/09/04 12:13:13;;;;;;;2.70;1.60;;;29.50;99.90;;;;;;4973682;28;20462;-74
2022/09/04 12:16:00;;;;;;;4.47;1.40;;;29.80;99.90;;;;;;4976683;28;20423;-75
2022/09/04 12:18:43;;;;;;;1.60;1.50;;;29.80;99.90;;;;;;4975850;28;20423;-75
2022/09/04 12:21:51;;;;;;;1.60;1.50;;;29.00;99.90;;;;;;4976032;28;20439;-75
2022/09/04 12:24:36;;;;;;;1.97;1.60;;;28.90;99.90;;;;;;4975562;28;20434;-75
2022/09/04 12:27:38;;;;;;;2.23;1.53;;;29.20;99.90;;;;;;4975017;28;20427;-71
2022/09/04 12:30:19;;;;;;;6.53;1.50;;;29.30;99.90;;;;;;4975212;28;20466;-75
2022/09/04 12:33:02;;;;;;;1.90;1.43;;;29.30;99.90;;;;;;4975435;28;21033;-73
2022/09/04 12:36:13;;;;;;;1.50;1.40;;;29.10;99.90;;;;;;4976111;28;20427;-75
2022/09/04 12:38:38;;;;;;;1.50;1.40;;;29.00;99.90;;;;;;4991487;28;20910;-75
2022/09/04 12:41:09;;;;;;;2.07;1.60;;;29.10;99.90;;;;;;4994924;28;20529;-75
2022/09/04 12:43:54;;;;;;;1.70;1.60;;;28.90;99.90;;;;;;4994616;28;20182;-73
2022/09/04 12:46:29;;;;;;;1.43;1.27;;;28.80;99.90;;;;;;4992506;28;20829;-75
2022/09/04 12:49:26;;;;;;;1.97;1.33;;;28.80;99.90;;;;;;4995055;28;20456;-76
2022/09/04 12:52:10;;;;;;;2.10;1.77;;;28.90;99.90;;;;;;4993930;28;20451;-77
2022/09/04 12:54:40;;;;;;;1.83;1.73;;;29.20;99.90;;;;;;4994145;28;20431;-75
2022/09/04 12:57:24;;;;;;;2.20;1.20;;;29.70;99.90;;;;;;4995313;28;20418;-77
2022/09/04 13:00:11;;;;;;;1.93;1.50;;;30.10;99.90;;;;;;4995001;28;20418;-75
2022/09/04 13:02:58;;;;;;;2.03;1.60;;;30.50;99.90;;;;;;4994311;28;20797;-77
2022/09/04 13:05:35;;;;;;;2.03;1.53;;;30.70;99.90;;;;;;4994800;28;20442;-77
2022/09/04 13:08:04;;;;;;;4.00;1.47;;;30.90;99.90;;;;;;4994652;28;20454;-76
2022/09/04 13:10:45;;;;;;;4.97;1.60;;;31.00;99.90;;;;;;4994004;28;20442;-77
2022/09/04 13:13:28;;;;;;;1.87;1.23;;;31.10;99.90;;;;;;4995379;28;20446;-76
2022/09/04 13:16:02;;;;;;;2.30;1.73;;;31.40;99.90;;;;;;4992662;28;20441;-76
2022/09/04 13:18:32;;;;;;;3.53;1.60;;;31.40;99.90;;;;;;4994753;28;20430;-75
2022/09/04 13:21:24;;;;;;;3.83;1.80;;;31.00;99.90;;;;;;4994474;28;20442;-75
2022/09/04 13:24:13;;;;;;;2.80;1.50;;;30.70;99.80;;;;;;4993259;28;21138;-77
2022/09/04 13:27:01;;;;;;;1.90;1.80;;;30.40;99.20;;;;;;4994923;28;20480;-75
2022/09/04 13:30:04;;;;;;;2.53;1.73;;;30.40;97.60;;;;;;4995168;28;20461;-79
2022/09/04 13:32:51;;;;;;;2.63;1.77;;;30.30;98.40;;;;;;4990156;28;20860;-79
2022/09/04 13:35:21;;;;;;;1.90;1.50;;;30.90;96.70;;;;;;4994334;28;20415;-79
2022/09/04 13:38:08;;;;;;;4.17;1.80;;;31.30;94.50;;;;;;4989298;28;20427;-78
2022/09/04 13:41:03;;;;;;;3.57;1.83;;;31.30;93.30;;;;;;4992785;28;20930;-78
2022/09/04 13:43:39;;;;;;;3.67;1.70;;;31.00;93.00;;;;;;4992202;28;20437;-79
2022/09/04 13:46:19;;;;;;;1.93;1.53;;;30.70;92.90;;;;;;4993848;28;20422;-78
2022/09/04 13:48:56;;;;;;;1.93;1.73;;;30.40;94.00;;;;;;4992754;28;20588;-79
2022/09/04 13:51:29;;;;;;;2.70;1.70;;;30.50;94.20;;;;;;4992875;28;20439;-80
2022/09/04 13:54:57;;;;;;;2.80;1.67;;;30.70;93.60;;;;;;4988939;28;20582;-79
2022/09/04 13:57:27;;;;;;;2.53;1.87;;;31.10;92.80;;;;;;4950850;28;20429;-79
2022/09/04 13:59:58;;;;;;;2.00;1.90;;;31.90;92.50;;;;;;4991519;28;20485;-79
2022/09/04 14:02:26;;;;;;;1.87;1.53;;;32.60;89.70;;;;;;4993013;28;20489;-78
2022/09/04 14:05:32;;;;;;;2.37;1.80;;;32.30;84.70;;;;;;4994878;28;20414;-79
2022/09/04 14:08:04;;;;;;;2.03;1.53;;;32.20;86.00;;;;;;4950688;29;20996;-80
2022/09/04 14:11:01;;;;;;;2.70;1.50;;;32.00;84.50;;;;;;4934955;29;20477;-80
2022/09/04 14:13:42;;;;;;;2.00;1.50;;;32.00;84.40;;;;;;4965163;28;20419;-80
2022/09/04 14:16:10;;;;;;;2.87;1.67;;;32.30;83.60;;;;;;4975496;28;20404;-77
2022/09/04 14:19:13;;;;;;;1.50;1.40;;;32.70;81.00;;;;;;4971824;28;20412;-77